createdAt,value
2019-01-16T00:02:07.733Z,1.40
2019-01-16T00:04:49.501Z,1.10
2019-01-16T00:07:36.445Z,1.10
2019-01-16T00:10:24.090Z,1.20
2019-01-16T00:13:11.057Z,1.30
2019-01-16T00:15:58.049Z,1.30
2019-01-16T00:18:45.004Z,1.77
2019-01-16T00:21:31.993Z,2.67
2019-01-16T00:24:18.961Z,1.53
2019-01-16T00:27:05.969Z,1.60
2019-01-16T00:29:53.016Z,1.50
2019-01-16T00:36:00.592Z,1.50
2019-01-16T00:38:26.403Z,0.90
2019-01-16T00:41:10.013Z,1.13
2019-01-16T00:43:53.383Z,1.47
2019-01-16T00:46:32.999Z,1.30
2019-01-16T00:49:22.795Z,1.10
2019-01-16T00:52:18.961Z,1.10
2019-01-16T00:55:12.269Z,1.10
2019-01-16T00:58:14.927Z,1.20
2019-01-16T01:00:55.907Z,1.40
2019-01-16T01:03:57.931Z,1.40
2019-01-16T01:06:44.476Z,1.00
2019-01-16T01:09:31.576Z,1.13
2019-01-16T01:12:27.204Z,0.90
2019-01-16T01:15:09.037Z,1.03
2019-01-16T01:17:54.905Z,0.90
2019-01-16T01:20:51.189Z,0.90
2019-01-16T01:23:34.454Z,0.80
2019-01-16T01:26:21.866Z,1.20
2019-01-16T01:29:01.085Z,1.07
2019-01-16T01:31:48.228Z,1.07
2019-01-16T01:34:34.928Z,1.70
2019-01-16T01:37:37.171Z,1.70
2019-01-16T01:40:24.464Z,1.73
2019-01-16T01:43:17.295Z,1.33
2019-01-16T01:46:01.995Z,1.00
2019-01-16T01:48:53.187Z,1.10
2019-01-16T01:51:49.197Z,1.13
2019-01-16T01:54:39.181Z,0.90
2019-01-16T01:57:26.650Z,1.00
2019-01-16T02:00:12.137Z,1.00
2019-01-16T02:02:55.990Z,0.90
2019-01-16T02:05:46.017Z,1.13
2019-01-16T02:08:33.833Z,1.40
2019-01-16T02:11:13.623Z,1.23
2019-01-16T02:14:19.136Z,1.30
2019-01-16T02:17:03.628Z,1.10
2019-01-16T02:19:51.647Z,1.40
2019-01-16T02:22:41.268Z,1.00
2019-01-16T02:25:22.639Z,1.30
2019-01-16T02:28:09.619Z,1.00
2019-01-16T02:31:08.430Z,1.10
2019-01-16T02:34:01.107Z,1.13
2019-01-16T02:36:54.008Z,1.33
2019-01-16T02:39:44.344Z,1.10
2019-01-16T02:42:34.214Z,1.20
2019-01-16T02:45:23.804Z,2.03
2019-01-16T02:48:11.128Z,1.40
2019-01-16T02:51:07.144Z,1.30
2019-01-16T02:54:06.798Z,1.47
2019-01-16T02:56:53.400Z,1.20
2019-01-16T02:59:43.545Z,1.30
2019-01-16T03:02:34.963Z,1.10
2019-01-16T03:05:19.255Z,1.13
2019-01-16T03:07:55.848Z,1.70
2019-01-16T03:10:51.872Z,1.30
2019-01-16T03:13:38.972Z,1.40
2019-01-16T03:16:29.668Z,1.30
2019-01-16T03:19:28.587Z,1.20
2019-01-16T03:22:33.805Z,1.50
2019-01-16T03:25:10.715Z,1.33
2019-01-16T03:28:12.618Z,1.10
2019-01-16T03:31:08.238Z,1.13
2019-01-16T03:33:53.933Z,1.10
2019-01-16T03:36:39.497Z,1.07
2019-01-16T03:39:33.728Z,1.23
2019-01-16T03:42:13.412Z,1.20
2019-01-16T03:44:58.715Z,1.20
2019-01-16T03:47:45.499Z,1.20
2019-01-16T03:50:37.497Z,0.90
2019-01-16T03:53:23.029Z,1.10
2019-01-16T03:56:19.256Z,1.30
2019-01-16T03:59:09.177Z,1.50
2019-01-16T04:02:09.041Z,1.10
2019-01-16T04:04:47.811Z,1.30
2019-01-16T04:07:24.835Z,1.30
2019-01-16T04:10:11.834Z,1.70
2019-01-16T04:12:51.517Z,1.23
2019-01-16T04:15:36.956Z,1.20
2019-01-16T04:18:27.346Z,1.27
2019-01-16T04:21:13.088Z,6.93
2019-01-16T04:23:58.750Z,7.97
2019-01-16T04:26:44.381Z,2.67
2019-01-16T04:29:29.933Z,1.50
2019-01-16T04:32:15.433Z,1.80
2019-01-16T04:35:00.923Z,1.53
2019-01-16T04:37:50.787Z,1.20
2019-01-16T04:40:29.854Z,1.27
2019-01-16T04:43:31.792Z,1.90
2019-01-16T04:46:12.599Z,1.20
2019-01-16T04:49:02.405Z,1.20
2019-01-16T04:51:39.456Z,1.40
2019-01-16T04:54:16.238Z,1.40
2019-01-16T04:57:01.874Z,1.13
2019-01-16T04:59:47.644Z,1.50
2019-01-16T05:02:44.147Z,1.40
2019-01-16T05:05:42.986Z,1.17
2019-01-16T05:08:28.669Z,1.10
2019-01-16T05:11:19.627Z,1.30
2019-01-16T05:14:06.704Z,1.23
2019-01-16T05:17:08.658Z,1.30
2019-01-16T05:20:01.514Z,1.20
2019-01-16T05:22:48.538Z,1.20
2019-01-16T05:25:44.504Z,1.20
2019-01-16T05:28:43.522Z,1.10
2019-01-16T05:31:23.291Z,1.40
2019-01-16T05:34:17.207Z,1.93
2019-01-16T05:37:11.395Z,1.27
2019-01-16T05:40:08.788Z,1.60
2019-01-16T05:42:53.204Z,1.37
2019-01-16T05:45:49.060Z,2.37
2019-01-16T05:48:39.426Z,2.97
2019-01-16T05:51:41.422Z,2.50
2019-01-16T05:54:51.319Z,2.50
2019-01-16T05:57:44.289Z,2.50
2019-01-16T06:00:26.062Z,2.40
2019-01-16T06:03:11.425Z,2.77
2019-01-16T06:05:56.841Z,2.57
2019-01-16T06:08:36.080Z,2.17
2019-01-16T06:11:28.905Z,3.97
2019-01-16T06:14:23.578Z,8.50
2019-01-16T06:17:26.047Z,3.03
2019-01-16T06:20:25.120Z,2.30
2019-01-16T06:23:19.645Z,2.73
2019-01-16T06:25:53.718Z,2.27
2019-01-16T06:28:35.091Z,1.87
2019-01-16T06:31:31.110Z,2.07
2019-01-16T06:34:27.134Z,2.60
2019-01-16T06:37:17.104Z,2.87
2019-01-16T06:40:10.453Z,2.60
2019-01-16T06:43:03.497Z,2.73
2019-01-16T06:45:49.260Z,5.70
2019-01-16T06:48:34.920Z,2.97
2019-01-16T06:51:18.682Z,3.40
2019-01-16T06:54:05.333Z,3.27
2019-01-16T06:56:50.661Z,2.87
2019-01-16T06:59:39.413Z,3.17
2019-01-16T07:02:17.974Z,3.03
2019-01-16T07:05:01.587Z,3.10
2019-01-16T07:07:46.952Z,2.73
2019-01-16T07:10:39.788Z,2.53
2019-01-16T07:13:25.436Z,2.77
2019-01-16T07:16:15.356Z,5.37
2019-01-16T07:19:17.258Z,4.43
2019-01-16T07:22:07.008Z,3.50
2019-01-16T07:24:52.543Z,3.10
2019-01-16T07:27:29.215Z,2.70
2019-01-16T07:30:18.947Z,2.73
2019-01-16T07:32:54.255Z,2.53
2019-01-16T07:35:39.687Z,2.10
2019-01-16T07:38:32.322Z,2.10
2019-01-16T07:41:24.960Z,1.80
2019-01-16T07:44:20.842Z,1.77
2019-01-16T07:47:07.684Z,1.70
2019-01-16T07:50:17.208Z,2.10
2019-01-16T07:52:55.756Z,2.30
2019-01-16T07:55:45.408Z,2.10
2019-01-16T07:58:35.087Z,1.90
2019-01-16T08:01:20.580Z,2.23
2019-01-16T08:04:19.499Z,4.97
2019-01-16T08:07:24.682Z,2.40
2019-01-16T08:10:10.237Z,2.20
2019-01-16T08:13:09.156Z,2.00
2019-01-16T08:15:57.776Z,2.30
2019-01-16T08:18:44.036Z,3.03
2019-01-16T08:21:46.145Z,6.20
2019-01-16T08:24:39.214Z,6.10
2019-01-16T08:27:28.840Z,5.37
2019-01-16T08:30:16.743Z,5.30
2019-01-16T08:33:02.386Z,2.70
2019-01-16T08:35:47.666Z,2.67
2019-01-16T08:38:34.700Z,2.70
2019-01-16T08:41:14.499Z,2.30
2019-01-16T08:44:01.568Z,2.33
2019-01-16T08:46:48.569Z,2.57
2019-01-16T08:49:44.199Z,2.23
2019-01-16T08:52:29.842Z,2.20
2019-01-16T08:55:26.846Z,3.40
2019-01-16T08:58:14.381Z,5.93
2019-01-16T09:01:06.416Z,4.40
2019-01-16T09:03:56.438Z,3.47
2019-01-16T09:06:36.538Z,2.67
2019-01-16T09:09:38.160Z,3.20
2019-01-16T09:12:43.364Z,3.10
2019-01-16T09:15:39.587Z,3.00
2019-01-16T09:18:24.796Z,2.70
2019-01-16T09:21:16.041Z,2.90
2019-01-16T09:24:05.850Z,2.80
2019-01-16T09:26:59.748Z,3.10
2019-01-16T09:29:47.211Z,3.63
2019-01-16T09:32:32.932Z,3.93
2019-01-16T09:35:43.840Z,3.60
2019-01-16T09:38:25.915Z,3.63
2019-01-16T09:41:12.800Z,3.50
2019-01-16T09:44:02.332Z,2.90
2019-01-16T09:46:39.800Z,5.07
2019-01-16T09:49:25.386Z,5.83
2019-01-16T09:52:10.040Z,5.13
2019-01-16T09:54:55.575Z,4.47
2019-01-16T09:57:52.287Z,4.57
2019-01-16T10:00:44.989Z,4.03
2019-01-16T10:03:40.687Z,4.50
2019-01-16T10:06:46.156Z,3.97
2019-01-16T10:09:25.597Z,3.80
2019-01-16T10:12:05.974Z,5.50
2019-01-16T10:14:53.249Z,6.00
2019-01-16T10:17:34.499Z,5.60
2019-01-16T10:20:24.990Z,4.60
2019-01-16T10:23:11.763Z,4.77
2019-01-16T10:25:54.278Z,4.77
2019-01-16T10:28:44.088Z,4.70
2019-01-16T10:31:30.104Z,4.73
2019-01-16T10:34:23.092Z,4.27
2019-01-16T10:37:07.214Z,4.70
2019-01-16T10:39:56.551Z,4.40
2019-01-16T10:42:46.335Z,4.47
2019-01-16T10:45:40.592Z,5.13
2019-01-16T10:48:28.957Z,5.73
2019-01-16T10:51:14.628Z,4.80
2019-01-16T10:54:00.284Z,5.00
2019-01-16T10:56:42.048Z,4.23
2019-01-16T10:59:31.641Z,3.60
2019-01-16T11:02:30.513Z,3.80
2019-01-16T11:05:20.380Z,3.70
2019-01-16T11:07:56.760Z,4.07
2019-01-16T11:10:52.581Z,4.40
2019-01-16T11:13:51.855Z,3.67
2019-01-16T11:16:44.881Z,3.63
2019-01-16T11:19:40.743Z,4.03
2019-01-16T11:22:20.484Z,4.97
2019-01-16T11:24:56.577Z,4.57
2019-01-16T11:27:46.333Z,3.50
2019-01-16T11:30:32.613Z,2.80
2019-01-16T11:33:20.008Z,2.53
2019-01-16T11:36:15.042Z,2.30
2019-01-16T11:39:07.210Z,2.63
2019-01-16T11:41:57.094Z,2.10
2019-01-16T11:44:55.670Z,1.70
2019-01-16T11:47:45.704Z,1.87
2019-01-16T11:50:25.290Z,1.70
2019-01-16T11:53:12.218Z,1.90
2019-01-16T11:56:05.025Z,2.00
2019-01-16T11:58:57.636Z,2.00
2019-01-16T12:01:47.337Z,1.90
2019-01-16T12:04:22.457Z,2.23
2019-01-16T12:07:07.613Z,2.00
2019-01-16T12:09:54.584Z,2.20
2019-01-16T12:12:59.613Z,2.10
2019-01-16T12:15:45.000Z,2.00
2019-01-16T12:18:34.623Z,2.03
2019-01-16T12:21:26.532Z,1.90
2019-01-16T12:24:11.459Z,2.10
2019-01-16T12:27:10.072Z,1.70
2019-01-16T12:30:14.984Z,1.50
2019-01-16T12:32:51.760Z,1.40
2019-01-16T12:35:37.263Z,1.27
2019-01-16T12:38:33.042Z,1.10
2019-01-16T12:41:18.453Z,1.00
2019-01-16T12:44:08.276Z,1.40
2019-01-16T12:46:53.804Z,1.07
2019-01-16T12:49:42.976Z,0.97
2019-01-16T12:52:42.226Z,1.10
2019-01-16T12:55:22.032Z,1.00
2019-01-16T12:58:13.479Z,1.30
2019-01-16T13:01:07.611Z,1.17
2019-01-16T13:03:54.821Z,1.00
2019-01-16T13:06:41.996Z,1.23
2019-01-16T13:09:45.464Z,1.10
2019-01-16T13:12:32.539Z,1.33
2019-01-16T13:15:18.087Z,1.40
2019-01-16T13:18:23.008Z,1.20
2019-01-16T13:21:18.807Z,1.20
2019-01-16T13:24:11.290Z,1.20
2019-01-16T13:27:16.646Z,1.60
2019-01-16T13:30:22.376Z,1.37
2019-01-16T13:33:09.408Z,1.50
2019-01-16T13:35:59.401Z,1.20
2019-01-16T13:38:58.223Z,1.60
2019-01-16T13:41:44.564Z,1.30
2019-01-16T13:44:34.618Z,1.50
2019-01-16T13:47:20.601Z,1.47
2019-01-16T13:50:19.838Z,1.37
2019-01-16T13:53:04.637Z,1.30
2019-01-16T13:55:52.526Z,1.10
2019-01-16T13:58:50.805Z,1.67
2019-01-16T14:04:50.249Z,1.07
2019-01-16T14:07:33.074Z,0.90
2019-01-16T14:10:07.849Z,1.30
2019-01-16T14:12:48.689Z,1.23
2019-01-16T14:15:35.006Z,1.17
2019-01-16T14:18:38.748Z,0.93
2019-01-16T14:21:44.073Z,1.30
2019-01-16T14:24:32.588Z,1.50
2019-01-16T14:27:18.118Z,1.77
2019-01-16T14:30:03.113Z,1.20
2019-01-16T14:32:53.609Z,1.20
2019-01-16T14:35:31.804Z,1.10
2019-01-16T14:38:27.905Z,1.17
2019-01-16T14:41:10.757Z,1.27
2019-01-16T14:44:09.369Z,1.60
2019-01-16T14:46:57.427Z,1.10
2019-01-16T14:49:49.128Z,1.00
2019-01-16T14:52:48.378Z,0.80
2019-01-16T14:55:42.318Z,0.70
2019-01-16T14:58:32.186Z,0.83
2019-01-16T15:01:28.457Z,0.70
2019-01-16T15:04:19.022Z,0.80
2019-01-16T15:07:15.352Z,0.63
2019-01-16T15:09:53.989Z,0.50
2019-01-16T15:12:43.642Z,0.80
2019-01-16T15:15:28.457Z,0.77
2019-01-16T15:18:40.901Z,0.90
2019-01-16T15:21:25.709Z,0.60
2019-01-16T15:24:11.337Z,0.80
2019-01-16T15:26:51.750Z,0.90
2019-01-16T15:29:45.300Z,0.77
2019-01-16T15:32:32.588Z,0.70
2019-01-16T15:35:18.112Z,1.00
2019-01-16T15:37:58.864Z,1.00
2019-01-16T15:40:51.789Z,1.20
2019-01-16T15:43:52.663Z,0.93
2019-01-16T15:46:42.521Z,0.90
2019-01-16T15:49:40.332Z,1.00
2019-01-16T15:52:40.100Z,0.93
2019-01-16T15:55:36.797Z,1.13
2019-01-16T15:58:24.873Z,1.50
2019-01-16T16:01:12.330Z,0.83
2019-01-16T16:04:11.563Z,0.90
2019-01-16T16:07:03.692Z,0.70
2019-01-16T16:10:12.530Z,0.60
2019-01-16T16:13:18.390Z,0.57
2019-01-16T16:16:17.566Z,0.80
2019-01-16T16:19:16.609Z,0.50
2019-01-16T16:22:19.275Z,0.50
2019-01-16T16:25:07.439Z,0.60
2019-01-16T16:27:59.701Z,0.90
2019-01-16T16:31:02.224Z,0.70
2019-01-16T16:34:12.569Z,0.67
2019-01-16T16:37:03.045Z,0.80
2019-01-16T16:40:02.571Z,0.50
2019-01-16T16:43:48.459Z,0.87
2019-01-16T16:46:00.785Z,0.60
2019-01-16T16:49:02.884Z,0.67
2019-01-16T16:52:33.779Z,0.40
2019-01-16T16:55:20.888Z,0.30
2019-01-16T16:58:26.850Z,0.80
2019-01-16T17:01:08.753Z,0.40
2019-01-16T17:04:10.392Z,0.40
2019-01-16T17:07:02.488Z,0.50
2019-01-16T17:09:55.636Z,0.30
2019-01-16T17:15:51.673Z,0.60
2019-01-16T17:22:32.464Z,0.40
2019-01-16T17:25:23.524Z,0.40
2019-01-16T17:28:22.630Z,0.70
2019-01-16T17:31:17.126Z,0.33
2019-01-16T17:34:23.209Z,0.53
2019-01-16T17:37:08.479Z,0.33
2019-01-16T17:40:10.039Z,0.60
2019-01-16T17:43:06.274Z,0.67
2019-01-16T17:46:04.160Z,0.60
2019-01-16T17:52:38.876Z,0.70
2019-01-16T17:55:47.187Z,0.60
2019-01-16T17:58:35.465Z,0.80
2019-01-16T18:01:34.357Z,0.67
2019-01-16T18:04:25.310Z,0.70
2019-01-16T18:07:33.300Z,0.90
2019-01-16T18:10:20.956Z,0.67
2019-01-16T18:13:08.529Z,0.70
2019-01-16T18:16:03.019Z,0.70
2019-01-16T18:18:52.316Z,0.93
2019-01-16T18:21:39.123Z,1.03
2019-01-16T18:24:32.832Z,1.00
2019-01-16T18:27:24.172Z,1.10
2019-01-16T18:30:21.585Z,0.80
2019-01-16T18:33:11.143Z,1.10
2019-01-16T18:36:07.496Z,0.90
2019-01-16T18:38:48.870Z,0.90
2019-01-16T18:41:49.447Z,1.20
2019-01-16T18:44:40.672Z,1.67
2019-01-16T18:47:22.716Z,1.40
2019-01-16T18:50:05.818Z,1.60
2019-01-16T18:52:55.447Z,1.30
2019-01-16T18:55:39.810Z,1.50
2019-01-16T18:58:29.687Z,1.70
2019-01-16T19:01:09.233Z,2.00
2019-01-16T19:04:02.371Z,2.20
2019-01-16T19:06:54.778Z,2.20
2019-01-16T19:09:48.371Z,2.60
2019-01-16T19:12:33.786Z,2.47
2019-01-16T19:15:28.029Z,2.47
2019-01-16T19:18:21.042Z,2.80
2019-01-16T19:21:07.932Z,3.03
2019-01-16T19:24:11.617Z,3.00
2019-01-16T19:26:59.638Z,3.33
2019-01-16T19:29:51.584Z,3.70
2019-01-16T19:32:39.565Z,3.90
2019-01-16T19:35:18.371Z,4.10
2019-01-16T19:38:17.707Z,4.07
2019-01-16T19:41:04.660Z,4.80
2019-01-16T19:44:08.799Z,4.40
2019-01-16T19:47:04.274Z,3.77
2019-01-16T19:49:59.809Z,4.40
2019-01-16T19:52:51.941Z,4.77
2019-01-16T19:55:53.712Z,4.23
2019-01-16T19:58:45.739Z,3.80
2019-01-16T20:05:19.357Z,5.00
2019-01-16T20:08:25.532Z,4.80
2019-01-16T20:11:07.240Z,4.40
2019-01-16T20:13:46.805Z,3.90
2019-01-16T20:16:42.430Z,4.63
2019-01-16T20:19:29.457Z,4.40
2019-01-16T20:22:20.768Z,4.00
2019-01-16T20:25:07.792Z,4.00
2019-01-16T20:27:53.268Z,3.97
2019-01-16T20:30:40.224Z,4.40
2019-01-16T20:33:32.754Z,5.10
2019-01-16T20:36:25.331Z,4.67
2019-01-16T20:39:10.464Z,4.43
2019-01-16T20:41:55.888Z,4.90
2019-01-16T20:44:45.736Z,4.60
2019-01-16T20:47:50.632Z,4.60
2019-01-16T20:50:35.916Z,4.80
2019-01-16T20:53:20.901Z,5.10
2019-01-16T20:56:07.145Z,4.77
2019-01-16T20:58:52.360Z,4.70
2019-01-16T21:01:37.523Z,5.37
2019-01-16T21:04:24.693Z,4.80
2019-01-16T21:07:02.947Z,4.60
2019-01-16T21:09:49.977Z,4.93
2019-01-16T21:12:33.052Z,5.73
2019-01-16T21:15:22.729Z,5.80
2019-01-16T21:18:12.496Z,4.77
2019-01-16T21:20:49.547Z,4.47
2019-01-16T21:23:39.306Z,4.30
2019-01-16T21:26:24.917Z,3.10
2019-01-16T21:29:17.429Z,3.30
2019-01-16T21:32:02.790Z,2.83
2019-01-16T21:34:39.017Z,2.90
2019-01-16T21:37:23.863Z,2.70
2019-01-16T21:40:13.387Z,2.30
2019-01-16T21:43:00.079Z,3.10
2019-01-16T21:45:41.980Z,2.63
2019-01-16T21:48:34.541Z,3.00
2019-01-16T21:51:19.819Z,1.80
2019-01-16T21:54:06.765Z,2.33
2019-01-16T21:56:57.663Z,2.10
2019-01-16T21:59:44.695Z,2.50
2019-01-16T22:02:30.260Z,1.47
2019-01-16T22:05:21.656Z,1.30
2019-01-16T22:08:04.450Z,1.07
2019-01-16T22:10:49.783Z,1.10
2019-01-16T22:13:35.210Z,1.20
2019-01-16T22:16:30.815Z,0.93
2019-01-16T22:19:17.749Z,0.90
2019-01-16T22:21:57.932Z,0.90
2019-01-16T22:24:47.581Z,1.00
2019-01-16T22:27:31.016Z,0.90
2019-01-16T22:30:16.232Z,0.80
2019-01-16T22:33:01.527Z,1.07
2019-01-16T22:35:51.048Z,1.00
2019-01-16T22:38:52.848Z,1.10
2019-01-16T22:41:29.087Z,1.30
2019-01-16T22:44:16.012Z,0.93
2019-01-16T22:47:01.332Z,1.00
2019-01-16T22:49:46.811Z,1.00
2019-01-16T22:52:36.319Z,1.10
2019-01-16T22:55:21.759Z,1.10
2019-01-16T22:58:11.647Z,1.10
2019-01-16T23:00:58.923Z,0.93
2019-01-16T23:03:51.653Z,0.70
2019-01-16T23:06:37.394Z,0.80
2019-01-16T23:09:28.943Z,0.80
2019-01-16T23:12:14.335Z,0.67
2019-01-16T23:15:00.811Z,0.70
2019-01-16T23:17:46.355Z,0.50
2019-01-16T23:20:42.237Z,0.50
2019-01-16T23:23:27.159Z,0.53
2019-01-16T23:26:15.868Z,1.00
2019-01-16T23:29:02.771Z,0.70
2019-01-16T23:31:47.977Z,1.20
2019-01-16T23:34:24.297Z,1.10
2019-01-16T23:37:26.060Z,0.97
2019-01-16T23:40:06.812Z,1.30
2019-01-16T23:42:54.847Z,1.20
2019-01-16T23:45:50.755Z,1.13
2019-01-16T23:48:37.260Z,1.67
2019-01-16T23:51:17.067Z,1.53
2019-01-16T23:53:56.417Z,1.70
2019-01-16T23:56:41.843Z,2.70
2019-01-16T23:59:27.071Z,7.87
